Time;durP1;ratioP1;P1;durP2;ratioP2;P2;SDS_P1;SDS_P2;PMS_P1;PMS_P2;Temp;Humidity;BMP_temperature;BMP_pressure;BME280_temperature;BME280_humidity;BME280_pressure;Samples;Min_cycle;Max_cycle;Signal;HPM_P1;HPM_P2
2023/09/15 00:01:48;;;;;;;4.75;4.32;;;16.60;62.10;;;;;;5025727;28;20045;-54
2023/09/15 00:04:15;;;;;;;5.20;4.70;;;16.60;62.10;;;;;;5026651;28;20038;-53
2023/09/15 00:06:46;;;;;;;4.80;4.30;;;16.50;62.10;;;;;;5024263;28;20041;-52
2023/09/15 00:09:15;;;;;;;5.13;4.63;;;16.50;62.00;;;;;;5024463;28;20524;-50
2023/09/15 00:11:54;;;;;;;6.05;4.72;;;16.50;62.10;;;;;;5020588;28;20037;-52
2023/09/15 00:14:23;;;;;;;8.30;4.60;;;16.50;62.30;;;;;;5020362;28;20133;-50
2023/09/15 00:16:50;;;;;;;6.00;4.22;;;16.40;62.10;;;;;;5009412;28;20080;-51
2023/09/15 00:19:18;;;;;;;5.57;4.60;;;16.40;62.20;;;;;;5022332;28;20030;-50
2023/09/15 00:21:50;;;;;;;7.18;5.10;;;16.40;62.30;;;;;;5017768;28;20533;-51
2023/09/15 00:24:16;;;;;;;12.13;4.80;;;16.40;62.30;;;;;;5023767;28;20044;-51
2023/09/15 00:26:44;;;;;;;4.38;3.97;;;16.40;62.30;;;;;;5024473;28;20123;-51
2023/09/15 00:29:16;;;;;;;7.18;4.07;;;16.30;62.30;;;;;;5016775;28;20455;-54
2023/09/15 00:31:57;;;;;;;5.22;4.72;;;16.30;62.40;;;;;;5019395;28;20060;-50
2023/09/15 00:34:24;;;;;;;5.07;3.53;;;16.30;62.30;;;;;;5021574;28;20056;-50
2023/09/15 00:36:54;;;;;;;4.93;3.80;;;16.20;62.30;;;;;;5025733;28;20422;-50
2023/09/15 00:39:26;;;;;;;5.13;4.43;;;16.20;62.30;;;;;;5022731;28;20084;-50
2023/09/15 00:41:57;;;;;;;4.88;4.10;;;16.20;62.40;;;;;;5023315;28;20112;-51
2023/09/15 00:44:30;;;;;;;5.18;4.05;;;16.20;62.30;;;;;;5022457;28;20045;-53
2023/09/15 00:46:57;;;;;;;5.25;4.25;;;16.20;62.40;;;;;;5008486;28;20073;-51
2023/09/15 00:49:25;;;;;;;4.57;4.13;;;16.10;62.30;;;;;;5010415;28;20053;-54
2023/09/15 00:51:52;;;;;;;9.20;5.13;;;16.10;62.40;;;;;;5022080;28;20073;-54
2023/09/15 00:54:20;;;;;;;9.65;4.35;;;16.10;62.50;;;;;;5020024;28;20084;-51
2023/09/15 00:56:48;;;;;;;7.35;4.20;;;16.00;62.50;;;;;;5014566;28;20128;-50
2023/09/15 00:59:14;;;;;;;4.85;4.30;;;16.10;62.60;;;;;;5018704;28;20053;-54
2023/09/15 01:01:42;;;;;;;5.20;4.68;;;16.00;62.50;;;;;;5020315;28;20059;-53
2023/09/15 01:04:10;;;;;;;6.72;4.03;;;16.00;62.60;;;;;;5015783;28;20069;-49
2023/09/15 01:06:38;;;;;;;5.38;4.88;;;16.00;62.60;;;;;;5020131;28;20049;-55
2023/09/15 01:09:07;;;;;;;5.90;4.15;;;15.90;62.60;;;;;;5017395;28;20519;-51
2023/09/15 01:11:37;;;;;;;5.25;4.75;;;15.90;62.60;;;;;;5018632;28;20047;-50
2023/09/15 01:14:08;;;;;;;6.72;4.43;;;15.90;62.70;;;;;;5023063;28;20052;-53
2023/09/15 01:16:48;;;;;;;4.53;3.83;;;15.90;62.70;;;;;;5023790;28;20123;-51
2023/09/15 01:19:35;;;;;;;;;;;15.90;62.80;;;;;;5018661;28;20057;-53
2023/09/15 01:22:14;;;;;;;4.47;3.88;;;15.90;62.70;;;;;;5020607;28;19921;-51
2023/09/15 01:24:52;;;;;;;4.93;3.75;;;15.90;62.60;;;;;;5020726;28;20056;-52
2023/09/15 01:27:44;;;;;;;5.68;4.10;;;15.80;62.70;;;;;;5016546;28;20089;-50
2023/09/15 01:30:12;;;;;;;5.25;4.13;;;15.80;63.00;;;;;;5011814;28;20061;-53
2023/09/15 01:32:41;;;;;;;4.65;3.72;;;15.70;62.50;;;;;;5024776;28;20053;-52
2023/09/15 01:35:11;;;;;;;5.40;3.65;;;15.70;62.60;;;;;;5004105;28;20053;-54
2023/09/15 01:37:39;;;;;;;5.15;4.00;;;15.70;62.80;;;;;;5011556;28;20141;-53
2023/09/15 01:40:07;;;;;;;7.22;3.92;;;15.70;62.90;;;;;;5020343;28;20041;-49
2023/09/15 01:42:36;;;;;;;7.65;4.10;;;15.70;62.90;;;;;;5012690;28;20042;-50
2023/09/15 01:45:07;;;;;;;4.38;3.92;;;15.60;62.90;;;;;;5015603;28;20042;-50
2023/09/15 01:47:37;;;;;;;3.90;3.60;;;15.60;62.90;;;;;;5028556;28;20065;-53
2023/09/15 01:50:07;;;;;;;3.90;3.50;;;15.60;63.10;;;;;;5024192;28;20054;-52
2023/09/15 01:52:36;;;;;;;5.05;4.55;;;15.60;63.10;;;;;;5027807;28;20129;-50
2023/09/15 01:55:06;;;;;;;4.72;4.18;;;15.50;63.10;;;;;;5021074;28;20053;-55
2023/09/15 01:57:34;;;;;;;4.88;3.95;;;15.60;63.80;;;;;;5022680;28;20042;-55
2023/09/15 02:00:06;;;;;;;4.13;3.72;;;15.50;63.10;;;;;;5030176;28;20491;-53
2023/09/15 02:02:37;;;;;;;6.72;3.40;;;15.50;63.10;;;;;;5028212;28;20060;-53
2023/09/15 02:05:04;;;;;;;6.20;3.97;;;15.50;63.10;;;;;;5023333;28;20533;-54
2023/09/15 02:07:31;;;;;;;4.05;3.63;;;15.50;63.10;;;;;;5032422;28;20042;-51
2023/09/15 02:09:59;;;;;;;6.07;3.70;;;15.50;63.20;;;;;;5024775;28;20041;-54
2023/09/15 02:12:28;;;;;;;6.20;4.07;;;15.50;63.30;;;;;;5022935;28;20046;-50
2023/09/15 02:14:57;;;;;;;6.90;3.85;;;15.40;63.30;;;;;;5023579;28;20049;-52
2023/09/15 02:17:24;;;;;;;4.13;3.47;;;15.40;63.40;;;;;;5029108;28;20076;-51
2023/09/15 02:19:52;;;;;;;3.85;3.53;;;15.40;63.40;;;;;;5031258;28;20056;-51
2023/09/15 02:22:18;;;;;;;4.85;3.90;;;15.40;63.40;;;;;;5011202;28;20068;-52
2023/09/15 02:24:52;;;;;;;3.90;3.33;;;15.40;63.40;;;;;;5025276;28;20073;-50
2023/09/15 02:27:24;;;;;;;4.80;3.70;;;15.30;63.40;;;;;;5028916;28;20132;-54
2023/09/15 02:29:51;;;;;;;4.07;3.45;;;15.30;63.40;;;;;;5024800;28;20038;-53
2023/09/15 02:32:18;;;;;;;4.60;3.85;;;15.30;63.30;;;;;;5023459;28;20104;-54
2023/09/15 02:34:50;;;;;;;5.43;3.83;;;15.30;63.40;;;;;;5025065;28;20068;-51
2023/09/15 02:37:17;;;;;;;5.50;3.78;;;15.30;63.50;;;;;;5011462;28;20127;-53
2023/09/15 02:39:48;;;;;;;3.72;3.35;;;15.30;63.60;;;;;;5014817;28;20620;-53
2023/09/15 02:42:15;;;;;;;4.68;3.65;;;15.30;63.70;;;;;;5006497;28;20048;-52
2023/09/15 02:44:45;;;;;;;3.70;3.40;;;15.20;63.50;;;;;;5042256;28;20069;-54
2023/09/15 02:47:12;;;;;;;4.57;3.17;;;15.30;63.60;;;;;;5026805;28;20065;-50
2023/09/15 02:49:42;;;;;;;3.35;3.03;;;15.20;63.50;;;;;;5023677;28;20048;-54
2023/09/15 02:52:09;;;;;;;4.50;4.10;;;15.20;63.60;;;;;;5022188;28;20128;-54
2023/09/15 02:54:36;;;;;;;4.18;3.78;;;15.20;63.60;;;;;;5026255;28;20073;-54
2023/09/15 02:57:07;;;;;;;3.70;3.20;;;15.20;63.60;;;;;;5025584;28;20049;-52
2023/09/15 02:59:36;;;;;;;5.25;4.05;;;15.20;63.60;;;;;;5015578;28;20049;-52
2023/09/15 03:02:16;;;;;;;3.58;2.83;;;15.10;63.60;;;;;;5027722;28;20038;-50
2023/09/15 03:04:46;;;;;;;3.42;2.75;;;15.10;63.70;;;;;;5038098;28;20073;-52
2023/09/15 03:07:16;;;;;;;3.50;3.17;;;15.10;63.60;;;;;;5026924;28;20491;-50
2023/09/15 03:09:43;;;;;;;3.83;3.00;;;15.10;63.60;;;;;;5018643;28;20049;-51
2023/09/15 03:12:11;;;;;;;3.90;3.53;;;15.10;63.60;;;;;;5022132;28;20050;-52
2023/09/15 03:14:39;;;;;;;5.28;3.42;;;15.00;63.60;;;;;;5026153;28;20533;-54
2023/09/15 03:17:06;;;;;;;4.43;3.58;;;15.00;63.60;;;;;;5028067;28;20037;-53
2023/09/15 03:19:34;;;;;;;3.80;2.90;;;15.00;63.80;;;;;;5026771;28;20041;-52
2023/09/15 03:22:01;;;;;;;4.70;3.47;;;15.00;63.80;;;;;;5024432;28;20160;-51
2023/09/15 03:24:32;;;;;;;6.05;3.50;;;15.00;63.70;;;;;;5019633;28;20046;-53
2023/09/15 03:26:58;;;;;;;5.78;2.90;;;15.00;63.90;;;;;;5027359;28;20052;-52
2023/09/15 03:29:27;;;;;;;3.50;3.03;;;15.00;64.00;;;;;;5027122;28;20038;-54
2023/09/15 03:31:57;;;;;;;4.32;3.00;;;14.90;63.90;;;;;;5023042;28;20057;-51
2023/09/15 03:34:24;;;;;;;4.72;3.30;;;14.90;63.80;;;;;;5022659;28;20049;-54
2023/09/15 03:36:51;;;;;;;3.67;2.85;;;14.90;63.80;;;;;;5018917;28;20045;-51
2023/09/15 03:39:21;;;;;;;3.85;3.10;;;14.90;63.90;;;;;;5025950;28;20038;-52
2023/09/15 03:41:53;;;;;;;4.80;3.17;;;14.80;63.90;;;;;;5028586;28;20088;-49
2023/09/15 03:44:22;;;;;;;3.28;2.80;;;14.90;64.00;;;;;;4991266;28;20041;-50
2023/09/15 03:46:48;;;;;;;4.82;2.85;;;15.00;64.00;;;;;;5008438;28;20049;-53
2023/09/15 03:49:15;;;;;;;3.95;3.15;;;14.80;64.00;;;;;;5020350;28;20073;-54
2023/09/15 03:51:42;;;;;;;4.38;2.67;;;14.90;64.10;;;;;;5035400;28;20050;-54
2023/09/15 03:54:11;;;;;;;4.38;3.97;;;14.80;64.10;;;;;;5028251;28;20451;-50
2023/09/15 03:56:38;;;;;;;4.45;3.13;;;14.80;64.20;;;;;;5024129;28;20081;-52
2023/09/15 03:59:09;;;;;;;3.85;3.42;;;14.80;64.10;;;;;;5021397;28;20045;-50
2023/09/15 04:01:39;;;;;;;3.03;2.72;;;14.80;64.20;;;;;;5030179;28;20053;-51
2023/09/15 04:04:06;;;;;;;5.75;3.20;;;14.70;64.20;;;;;;5024266;28;20077;-52
2023/09/15 04:06:33;;;;;;;3.03;2.67;;;14.70;64.10;;;;;;5025081;28;20034;-51
2023/09/15 04:09:00;;;;;;;3.78;3.25;;;14.70;64.20;;;;;;5015914;28;20100;-51
2023/09/15 04:11:27;;;;;;;4.88;3.17;;;14.70;64.20;;;;;;5027258;28;20165;-49
2023/09/15 04:13:56;;;;;;;4.80;2.60;;;14.70;64.10;;;;;;5028614;28;20044;-53
2023/09/15 04:16:23;;;;;;;3.75;2.80;;;14.70;64.30;;;;;;5025856;28;20038;-49
2023/09/15 04:18:52;;;;;;;5.80;2.83;;;14.70;64.30;;;;;;5022907;28;20053;-50
2023/09/15 04:21:24;;;;;;;4.97;3.00;;;14.70;64.30;;;;;;5022216;28;20078;-51
2023/09/15 04:23:58;;;;;;;4.35;3.60;;;14.60;64.20;;;;;;5011652;28;20042;-53
2023/09/15 04:26:27;;;;;;;4.03;3.15;;;14.60;64.20;;;;;;5029391;28;20048;-51
2023/09/15 04:28:58;;;;;;;3.08;2.85;;;14.60;64.30;;;;;;5015122;28;20053;-52
2023/09/15 04:31:24;;;;;;;5.57;3.75;;;14.60;64.40;;;;;;5010690;28;20042;-52
2023/09/15 04:33:51;;;;;;;4.90;3.28;;;14.60;64.30;;;;;;5025736;28;20061;-52
2023/09/15 04:36:21;;;;;;;3.85;3.13;;;14.60;64.30;;;;;;5015110;28;20041;-51
2023/09/15 04:38:52;;;;;;;4.18;3.35;;;14.50;64.30;;;;;;5010896;28;20069;-50
2023/09/15 04:41:19;;;;;;;3.53;3.22;;;14.50;64.40;;;;;;5015110;28;20519;-51
2023/09/15 04:43:47;;;;;;;4.50;3.10;;;14.50;64.60;;;;;;5002480;28;20045;-52
2023/09/15 04:46:14;;;;;;;4.32;2.80;;;14.50;64.70;;;;;;5017567;28;20076;-50
2023/09/15 04:48:41;;;;;;;3.25;2.88;;;14.60;64.80;;;;;;5015761;28;20104;-52
2023/09/15 04:51:08;;;;;;;5.45;2.88;;;14.50;64.70;;;;;;5021290;28;20060;-51
2023/09/15 04:53:35;;;;;;;3.28;2.97;;;14.50;64.80;;;;;;5024726;28;20539;-51
2023/09/15 04:56:03;;;;;;;3.80;2.83;;;14.50;64.80;;;;;;5022732;28;20116;-51
2023/09/15 04:58:31;;;;;;;4.13;3.20;;;14.50;64.80;;;;;;5023401;28;20103;-54
2023/09/15 05:00:59;;;;;;;4.07;3.03;;;14.50;64.90;;;;;;5015062;28;20515;-51
2023/09/15 05:03:28;;;;;;;2.83;2.30;;;14.50;65.00;;;;;;5027089;28;20048;-54
2023/09/15 05:05:55;;;;;;;3.90;3.50;;;14.50;64.90;;;;;;5020199;28;20184;-54
2023/09/15 05:08:22;;;;;;;4.57;2.97;;;14.50;65.00;;;;;;5015777;28;20053;-54
2023/09/15 05:10:49;;;;;;;4.20;2.97;;;14.50;65.10;;;;;;5026791;28;20045;-50
2023/09/15 05:13:16;;;;;;;4.18;3.63;;;14.50;65.00;;;;;;5019139;28;20041;-54
2023/09/15 05:15:44;;;;;;;4.72;3.40;;;14.50;65.10;;;;;;5033039;28;20083;-54
2023/09/15 05:18:11;;;;;;;3.33;2.70;;;14.50;65.10;;;;;;5041455;28;20049;-53
2023/09/15 05:20:38;;;;;;;3.13;2.60;;;14.50;65.80;;;;;;5005279;28;20064;-51
2023/09/15 05:23:05;;;;;;;4.90;3.20;;;14.50;65.20;;;;;;5008029;28;20459;-52
2023/09/15 05:25:33;;;;;;;4.32;3.13;;;14.40;65.10;;;;;;5010536;28;20051;-49
2023/09/15 05:28:04;;;;;;;4.80;3.42;;;14.50;65.20;;;;;;5021244;28;20088;-54
2023/09/15 05:30:32;;;;;;;4.38;3.80;;;14.50;65.30;;;;;;5025563;28;20168;-54
2023/09/15 05:32:59;;;;;;;4.05;3.20;;;14.50;65.40;;;;;;5021333;28;20448;-52
2023/09/15 05:35:26;;;;;;;3.63;3.03;;;14.50;65.40;;;;;;5005327;28;20053;-50
2023/09/15 05:37:53;;;;;;;7.40;3.45;;;14.50;65.50;;;;;;5024377;28;20060;-53
2023/09/15 05:40:20;;;;;;;3.00;2.70;;;14.50;65.50;;;;;;5016855;28;20073;-53
2023/09/15 05:42:47;;;;;;;5.43;3.28;;;14.50;66.30;;;;;;5020065;28;20755;-50
2023/09/15 05:45:13;;;;;;;3.63;2.63;;;14.50;65.70;;;;;;5028699;28;20120;-52
2023/09/15 05:47:40;;;;;;;6.22;3.60;;;14.50;65.80;;;;;;5022817;28;20685;-50
2023/09/15 05:50:10;;;;;;;5.60;3.20;;;14.50;65.80;;;;;;5026536;28;20056;-55
2023/09/15 05:52:36;;;;;;;3.78;3.05;;;14.50;66.00;;;;;;5025928;28;20053;-53
2023/09/15 05:55:04;;;;;;;5.70;3.78;;;14.60;66.00;;;;;;5027292;28;20080;-52
2023/09/15 05:57:31;;;;;;;3.47;3.17;;;14.60;66.10;;;;;;5020927;28;20045;-52
2023/09/15 05:59:58;;;;;;;4.25;2.90;;;14.60;66.10;;;;;;5025114;28;20103;-53
2023/09/15 06:02:24;;;;;;;4.30;2.97;;;14.60;66.10;;;;;;5020707;28;20120;-54
2023/09/15 06:04:51;;;;;;;6.88;2.88;;;14.60;66.20;;;;;;5024325;28;20412;-54
2023/09/15 06:07:18;;;;;;;2.83;2.42;;;14.70;66.30;;;;;;5020960;28;20097;-53
2023/09/15 06:09:47;;;;;;;5.43;3.22;;;14.60;66.30;;;;;;5021245;28;20064;-54
2023/09/15 06:12:14;;;;;;;4.88;3.40;;;14.70;66.50;;;;;;5019710;28;20531;-54
2023/09/15 06:14:42;;;;;;;3.65;2.80;;;14.70;66.60;;;;;;5022998;28;20389;-54
2023/09/15 06:17:09;;;;;;;6.53;2.75;;;14.70;66.70;;;;;;5019110;28;20145;-55
2023/09/15 06:19:36;;;;;;;6.22;3.42;;;14.80;66.70;;;;;;5020994;28;20049;-50
2023/09/15 06:22:05;;;;;;;3.10;2.67;;;14.80;66.80;;;;;;5018046;28;20069;-50
2023/09/15 06:24:32;;;;;;;3.58;2.80;;;14.80;66.80;;;;;;5022684;28;20042;-53
2023/09/15 06:26:58;;;;;;;5.38;3.53;;;14.80;66.90;;;;;;5021588;28;20041;-50
2023/09/15 06:29:25;;;;;;;3.78;3.25;;;14.90;67.00;;;;;;5020566;28;20045;-50
2023/09/15 06:31:53;;;;;;;4.78;3.40;;;14.90;67.20;;;;;;5026010;28;20046;-54
2023/09/15 06:34:20;;;;;;;4.35;3.55;;;14.90;67.20;;;;;;5022639;28;20046;-52
2023/09/15 06:36:47;;;;;;;4.05;2.78;;;14.90;67.30;;;;;;5026649;28;20041;-53
2023/09/15 06:39:13;;;;;;;3.63;3.28;;;15.00;67.50;;;;;;5024731;28;20101;-52
2023/09/15 06:41:40;;;;;;;5.35;3.25;;;15.00;67.70;;;;;;5022633;28;20037;-53
2023/09/15 06:44:20;;;;;;;4.28;3.25;;;15.10;67.80;;;;;;5021290;28;20040;-54
2023/09/15 06:46:47;;;;;;;5.95;3.88;;;15.10;68.00;;;;;;5028667;28;20042;-52
2023/09/15 06:49:16;;;;;;;5.05;4.18;;;15.20;68.40;;;;;;5027664;28;20617;-53
2023/09/15 06:51:43;;;;;;;4.90;3.42;;;15.20;68.60;;;;;;5025858;28;20045;-51
2023/09/15 06:54:11;;;;;;;8.32;4.40;;;15.30;68.70;;;;;;5027354;28;20048;-50
2023/09/15 06:56:37;;;;;;;8.63;3.92;;;15.30;68.90;;;;;;5027873;28;20041;-53
2023/09/15 06:59:04;;;;;;;5.25;3.58;;;15.40;69.10;;;;;;5021296;28;20042;-55
2023/09/15 07:01:31;;;;;;;7.60;4.10;;;15.40;69.10;;;;;;5028068;28;20120;-52
2023/09/15 07:03:58;;;;;;;5.45;3.40;;;15.40;69.10;;;;;;5021645;28;20675;-53
2023/09/15 07:06:25;;;;;;;5.20;3.80;;;15.50;69.30;;;;;;5024816;28;20403;-54
2023/09/15 07:08:52;;;;;;;7.18;3.60;;;15.60;69.40;;;;;;5017347;28;20061;-55
2023/09/15 07:11:18;;;;;;;4.85;3.38;;;15.60;69.50;;;;;;5017015;28;20125;-53
2023/09/15 07:13:53;;;;;;;6.45;3.85;;;15.70;69.50;;;;;;5025221;28;20633;-52
2023/09/15 07:16:20;;;;;;;6.43;4.00;;;15.70;69.60;;;;;;5023304;28;20583;-54
2023/09/15 07:18:49;;;;;;;5.30;3.95;;;15.80;69.70;;;;;;5024339;28;20052;-54
2023/09/15 07:21:16;;;;;;;6.95;3.60;;;15.90;69.70;;;;;;5021207;28;20041;-55
2023/09/15 07:23:42;;;;;;;4.82;3.33;;;15.90;69.80;;;;;;5027171;28;20065;-51
2023/09/15 07:26:09;;;;;;;7.85;3.58;;;15.90;69.80;;;;;;5021764;28;20064;-54
2023/09/15 07:28:36;;;;;;;5.63;3.67;;;15.90;69.80;;;;;;5025018;28;20060;-53
2023/09/15 07:31:03;;;;;;;7.28;4.45;;;16.00;70.00;;;;;;5027445;28;20474;-54
2023/09/15 07:33:31;;;;;;;6.57;3.53;;;16.10;70.00;;;;;;5024564;28;20053;-54
2023/09/15 07:35:59;;;;;;;5.15;3.40;;;16.10;69.90;;;;;;5026988;28;20045;-53
2023/09/15 07:38:26;;;;;;;4.57;3.42;;;16.20;69.90;;;;;;5028662;28;20044;-55
2023/09/15 07:40:54;;;;;;;3.88;3.45;;;16.20;69.80;;;;;;5016741;28;20096;-55
2023/09/15 07:43:21;;;;;;;4.38;2.97;;;16.30;69.90;;;;;;5018363;28;20080;-51
2023/09/15 07:45:50;;;;;;;7.30;4.10;;;16.30;70.00;;;;;;5030020;28;20565;-54
2023/09/15 07:48:17;;;;;;;5.68;3.25;;;16.40;70.00;;;;;;5023436;28;20042;-54
2023/09/15 07:50:44;;;;;;;7.95;4.13;;;16.40;69.90;;;;;;5018718;28;20618;-54
2023/09/15 07:53:10;;;;;;;3.92;3.03;;;16.50;69.90;;;;;;5030835;28;20511;-51
2023/09/15 07:55:37;;;;;;;6.18;3.47;;;16.50;69.70;;;;;;5022331;28;20056;-52
2023/09/15 07:58:04;;;;;;;4.07;3.47;;;16.60;69.60;;;;;;5023435;28;20100;-55
2023/09/15 08:00:33;;;;;;;4.88;3.20;;;16.60;69.70;;;;;;5019860;28;20049;-53
2023/09/15 08:03:00;;;;;;;6.03;3.20;;;16.70;69.90;;;;;;5022230;28;20108;-55
2023/09/15 08:05:27;;;;;;;7.15;2.95;;;16.70;69.80;;;;;;5021824;28;20518;-49
2023/09/15 08:07:53;;;;;;;6.63;3.47;;;16.80;69.80;;;;;;5030192;28;20060;-52
2023/09/15 08:10:22;;;;;;;5.38;3.35;;;16.80;69.50;;;;;;5022511;28;20531;-49
2023/09/15 08:12:52;;;;;;;5.68;3.10;;;16.90;69.50;;;;;;5019829;28;20443;-54
2023/09/15 08:15:20;;;;;;;5.25;2.85;;;16.90;69.30;;;;;;5020824;28;20056;-55
2023/09/15 08:17:47;;;;;;;5.72;2.55;;;17.00;69.40;;;;;;5028105;28;20066;-53
2023/09/15 08:20:14;;;;;;;4.60;2.72;;;17.00;69.10;;;;;;5030028;28;20055;-55
2023/09/15 08:22:41;;;;;;;7.22;3.83;;;17.10;69.20;;;;;;5023182;28;20163;-52
2023/09/15 08:25:10;;;;;;;4.07;3.10;;;17.10;69.20;;;;;;5025134;28;20116;-53
2023/09/15 08:27:38;;;;;;;7.00;2.72;;;17.20;69.20;;;;;;5027614;28;20049;-54
2023/09/15 08:30:08;;;;;;;3.92;2.75;;;17.30;69.20;;;;;;5014343;28;20162;-50
2023/09/15 08:32:35;;;;;;;4.85;2.47;;;17.30;68.90;;;;;;5027851;28;20056;-52
2023/09/15 08:35:03;;;;;;;6.47;3.00;;;17.30;68.80;;;;;;5020831;28;20092;-53
2023/09/15 08:37:31;;;;;;;4.47;2.70;;;17.40;69.10;;;;;;5025575;28;20095;-50
2023/09/15 08:39:58;;;;;;;6.15;2.95;;;17.50;69.10;;;;;;5023763;28;20092;-52
2023/09/15 08:42:29;;;;;;;5.03;2.80;;;17.50;69.30;;;;;;5022231;28;20037;-49
2023/09/15 08:44:58;;;;;;;5.78;2.78;;;17.60;69.50;;;;;;5057448;23;20053;-46
2023/09/15 08:47:31;;;;;;;5.68;2.30;;;17.70;69.20;;;;;;5036127;28;20096;-48
2023/09/15 08:50:01;;;;;;;3.30;2.20;;;17.70;69.40;;;;;;5044116;28;20046;-46
2023/09/15 08:52:28;;;;;;;3.65;2.45;;;17.70;69.30;;;;;;5041734;28;20076;-46
2023/09/15 08:54:56;;;;;;;5.35;3.05;;;17.80;69.70;;;;;;5046118;28;20441;-46
2023/09/15 08:57:25;;;;;;;4.20;2.88;;;17.90;68.90;;;;;;5045447;28;20095;-47
2023/09/15 08:59:53;;;;;;;4.43;2.58;;;17.90;69.00;;;;;;5037886;28;20104;-46
2023/09/15 09:02:22;;;;;;;6.35;3.08;;;18.00;69.00;;;;;;5040238;28;20033;-45
2023/09/15 09:04:49;;;;;;;4.82;2.78;;;18.00;68.80;;;;;;5031241;28;20053;-48
2023/09/15 09:07:18;;;;;;;3.88;2.78;;;18.00;68.80;;;;;;5016437;28;20037;-47
2023/09/15 09:09:47;;;;;;;5.47;2.33;;;18.10;68.80;;;;;;5033880;28;20396;-46
2023/09/15 09:12:14;;;;;;;4.30;2.15;;;18.20;68.60;;;;;;5046155;28;20115;-47
2023/09/15 09:14:41;;;;;;;5.05;2.63;;;18.20;68.70;;;;;;5030549;28;20476;-47
2023/09/15 09:17:10;;;;;;;3.80;2.70;;;18.30;68.70;;;;;;5027838;28;20521;-50
2023/09/15 09:19:38;;;;;;;3.70;2.28;;;18.30;68.40;;;;;;5029439;28;20080;-47
2023/09/15 09:22:08;;;;;;;4.57;2.38;;;18.30;68.50;;;;;;5028562;28;20048;-49
2023/09/15 09:24:36;;;;;;;4.28;3.17;;;18.50;68.70;;;;;;5035943;28;20415;-48
2023/09/15 09:27:10;;;;;;;4.28;2.67;;;18.50;69.10;;;;;;5027846;28;20294;-51
2023/09/15 09:29:38;;;;;;;6.07;3.03;;;18.60;69.10;;;;;;5032243;28;20829;-48
2023/09/15 09:32:05;;;;;;;3.53;2.55;;;18.60;68.60;;;;;;5033503;28;20065;-50
2023/09/15 09:34:31;;;;;;;2.85;2.20;;;18.70;68.90;;;;;;5028341;28;20096;-46
2023/09/15 09:37:13;;;;;;;5.20;2.93;;;18.70;68.60;;;;;;5035157;28;20065;-51
2023/09/15 09:39:40;;;;;;;4.18;2.60;;;18.80;68.30;;;;;;5032097;28;20124;-49
2023/09/15 09:42:07;;;;;;;3.30;2.40;;;18.90;67.90;;;;;;5024704;28;20042;-49
2023/09/15 09:44:36;;;;;;;6.45;2.28;;;18.90;67.50;;;;;;5033051;28;20050;-53
2023/09/15 09:47:07;;;;;;;3.33;2.38;;;19.00;67.70;;;;;;5035503;28;20112;-54
2023/09/15 09:49:35;;;;;;;4.43;2.40;;;19.10;67.70;;;;;;5028850;28;20563;-53
2023/09/15 09:52:03;;;;;;;4.40;2.42;;;19.10;67.80;;;;;;5030007;28;20041;-53
2023/09/15 09:54:31;;;;;;;5.88;2.70;;;19.20;67.90;;;;;;5031950;28;20136;-54
2023/09/15 09:56:58;;;;;;;4.35;2.40;;;19.30;67.90;;;;;;5043240;28;20533;-52
2023/09/15 09:59:28;;;;;;;3.63;2.10;;;19.30;67.60;;;;;;5031188;28;20068;-54
2023/09/15 10:01:54;;;;;;;5.00;2.13;;;19.40;67.90;;;;;;5030708;28;20557;-54
2023/09/15 10:04:22;;;;;;;3.22;2.40;;;19.50;67.70;;;;;;5030142;28;20061;-52
2023/09/15 10:06:49;;;;;;;3.33;2.95;;;19.60;67.30;;;;;;5027920;28;20144;-54
2023/09/15 10:09:18;;;;;;;3.08;2.10;;;19.70;66.90;;;;;;5042689;28;20041;-53
2023/09/15 10:11:45;;;;;;;2.72;2.40;;;19.70;66.80;;;;;;5040094;28;20412;-52
2023/09/15 10:14:12;;;;;;;2.55;2.35;;;19.80;66.80;;;;;;5034220;28;20072;-53
2023/09/15 10:16:40;;;;;;;5.38;2.80;;;19.90;66.50;;;;;;5039020;28;20124;-54
2023/09/15 10:19:08;;;;;;;2.75;2.05;;;20.00;66.70;;;;;;5040582;28;20049;-53
2023/09/15 10:21:35;;;;;;;3.53;2.10;;;20.00;66.50;;;;;;5040417;28;20048;-53
2023/09/15 10:24:07;;;;;;;6.18;2.58;;;20.10;66.30;;;;;;5026809;28;20052;-54
2023/09/15 10:26:38;;;;;;;6.47;2.75;;;20.20;66.20;;;;;;5041814;28;20045;-54
2023/09/15 10:29:05;;;;;;;4.32;2.58;;;20.20;66.30;;;;;;5030895;28;20101;-53
2023/09/15 10:31:33;;;;;;;4.95;1.90;;;20.30;66.10;;;;;;5032797;28;20085;-54
2023/09/15 10:34:04;;;;;;;4.20;2.67;;;20.40;65.80;;;;;;5033523;28;20045;-54
2023/09/15 10:36:34;;;;;;;2.55;2.08;;;20.40;65.70;;;;;;5029062;28;20069;-53
2023/09/15 10:39:15;;;;;;;4.10;1.90;;;20.50;65.90;;;;;;5045872;28;20045;-53
2023/09/15 10:41:42;;;;;;;2.83;2.22;;;20.60;65.90;;;;;;5031327;28;20133;-54
2023/09/15 10:44:10;;;;;;;2.25;1.90;;;20.70;66.10;;;;;;5029373;28;20112;-54
2023/09/15 10:46:41;;;;;;;3.78;2.63;;;20.80;65.80;;;;;;5031535;28;20076;-52
2023/09/15 10:49:16;;;;;;;2.22;1.98;;;20.80;64.70;;;;;;5032336;28;20609;-54
2023/09/15 10:51:54;;;;;;;2.22;2.03;;;20.90;64.70;;;;;;5029661;28;20041;-53
2023/09/15 10:54:24;;;;;;;2.60;1.73;;;21.00;64.30;;;;;;5029111;28;20422;-53
2023/09/15 10:56:51;;;;;;;2.13;1.92;;;21.10;64.20;;;;;;5024420;28;20604;-51
2023/09/15 10:59:18;;;;;;;4.63;2.28;;;21.10;64.80;;;;;;5026451;28;20464;-54
2023/09/15 11:01:45;;;;;;;2.72;1.92;;;21.20;63.70;;;;;;5040853;28;20073;-52
2023/09/15 11:04:17;;;;;;;4.05;1.92;;;21.30;63.70;;;;;;5036654;28;20056;-53
2023/09/15 11:06:51;;;;;;;4.03;2.30;;;21.30;63.20;;;;;;5003847;28;20551;-54
2023/09/15 11:09:19;;;;;;;2.35;2.10;;;21.40;62.70;;;;;;5060035;28;20029;-54
2023/09/15 11:11:50;;;;;;;2.67;1.92;;;21.50;62.50;;;;;;5035196;28;20049;-54
2023/09/15 11:14:20;;;;;;;4.10;1.63;;;21.60;61.90;;;;;;5022642;28;20069;-54
2023/09/15 11:16:51;;;;;;;2.65;2.00;;;21.60;62.10;;;;;;5037039;28;20053;-54
2023/09/15 11:19:22;;;;;;;3.38;2.10;;;21.70;62.20;;;;;;5044295;28;20045;-53
2023/09/15 11:21:51;;;;;;;3.17;2.25;;;21.70;62.10;;;;;;5034675;28;20037;-52
2023/09/15 11:24:18;;;;;;;2.80;1.83;;;21.80;61.10;;;;;;5036277;28;20119;-53
2023/09/15 11:26:47;;;;;;;2.60;2.20;;;21.90;61.20;;;;;;5039881;28;20411;-54
2023/09/15 11:29:24;;;;;;;3.67;2.38;;;21.90;61.20;;;;;;5028388;28;20128;-55
2023/09/15 11:31:52;;;;;;;3.35;2.05;;;22.00;61.50;;;;;;5030321;28;20068;-54
2023/09/15 11:34:20;;;;;;;3.25;2.33;;;22.10;61.10;;;;;;5037942;28;20120;-54
2023/09/15 11:36:49;;;;;;;3.05;2.25;;;22.20;61.00;;;;;;5030799;28;20048;-54
2023/09/15 11:39:16;;;;;;;3.30;1.98;;;22.20;60.70;;;;;;5038292;28;20059;-54
2023/09/15 11:41:53;;;;;;;4.43;2.38;;;22.30;60.70;;;;;;5033894;28;20754;-54
2023/09/15 11:44:29;;;;;;;3.28;2.15;;;22.40;60.70;;;;;;5026823;28;20044;-54
2023/09/15 11:47:01;;;;;;;3.60;2.78;;;22.50;59.90;;;;;;5037824;28;20572;-54
2023/09/15 11:49:29;;;;;;;2.42;1.85;;;22.50;60.00;;;;;;5025168;28;20033;-54
2023/09/15 11:52:00;;;;;;;3.28;2.40;;;22.60;59.70;;;;;;5025566;28;20493;-54
2023/09/15 11:54:27;;;;;;;3.63;2.33;;;22.60;59.40;;;;;;5037477;28;20080;-54
2023/09/15 11:56:54;;;;;;;3.13;1.80;;;22.70;59.20;;;;;;5035378;28;20046;-54
2023/09/15 11:59:21;;;;;;;3.83;2.08;;;22.70;59.20;;;;;;5030220;28;20045;-53
2023/09/15 12:01:48;;;;;;;3.03;2.38;;;22.80;58.30;;;;;;5029495;28;20045;-54
2023/09/15 12:04:15;;;;;;;3.45;1.95;;;22.90;57.70;;;;;;5024833;28;20483;-54
2023/09/15 12:06:42;;;;;;;2.80;1.90;;;23.00;58.40;;;;;;5030936;28;20069;-55
2023/09/15 12:09:12;;;;;;;2.67;2.00;;;23.00;58.00;;;;;;5028422;28;20037;-54
2023/09/15 12:11:46;;;;;;;2.70;1.73;;;23.10;58.50;;;;;;5038338;28;20116;-55
2023/09/15 12:14:14;;;;;;;3.67;1.80;;;23.10;58.20;;;;;;5036620;28;20040;-55
2023/09/15 12:16:45;;;;;;;3.92;1.80;;;23.20;58.10;;;;;;5028911;28;20041;-54
2023/09/15 12:19:12;;;;;;;3.30;1.80;;;23.40;56.90;;;;;;5037684;28;20045;-54
2023/09/15 12:21:53;;;;;;;3.05;2.03;;;23.40;56.60;;;;;;5029662;28;20069;-54
2023/09/15 12:24:23;;;;;;;4.13;2.30;;;23.50;56.20;;;;;;5027534;28;20071;-54
2023/09/15 12:26:51;;;;;;;4.45;1.83;;;23.60;56.10;;;;;;5038186;28;20042;-51
2023/09/15 12:29:21;;;;;;;4.28;1.80;;;23.70;55.70;;;;;;5024097;28;20128;-55
2023/09/15 12:31:50;;;;;;;4.75;2.22;;;23.80;54.80;;;;;;5031635;28;20045;-54
2023/09/15 12:34:20;;;;;;;2.65;1.70;;;23.90;55.70;;;;;;5023419;28;20050;-54
2023/09/15 12:36:51;;;;;;;5.10;2.20;;;24.00;55.10;;;;;;5034155;28;20055;-55
2023/09/15 12:39:18;;;;;;;2.53;2.10;;;24.10;54.40;;;;;;5031399;28;20037;-55
2023/09/15 12:41:45;;;;;;;2.50;2.03;;;24.10;55.60;;;;;;5036164;28;20046;-55
2023/09/15 12:44:21;;;;;;;3.47;1.88;;;24.30;53.70;;;;;;5028455;28;20037;-53
2023/09/15 12:46:47;;;;;;;2.47;1.85;;;24.30;54.30;;;;;;5025760;28;20131;-54
2023/09/15 12:49:14;;;;;;;3.88;1.67;;;24.40;54.30;;;;;;5027776;28;20669;-54
2023/09/15 12:51:41;;;;;;;1.98;1.80;;;24.50;54.00;;;;;;5020629;28;20095;-55
2023/09/15 12:54:11;;;;;;;4.75;2.20;;;24.60;53.50;;;;;;5027737;28;20059;-55
2023/09/15 12:56:37;;;;;;;4.55;1.88;;;24.70;53.00;;;;;;5033710;28;20068;-54